createdAt,value
2019-03-10T00:00:30.333Z,27.37
2019-03-10T00:02:58.906Z,26.80
2019-03-10T00:05:27.103Z,32.07
2019-03-10T00:07:55.387Z,19.70
2019-03-10T00:10:24.290Z,31.40
2019-03-10T00:12:52.540Z,26.67
2019-03-10T00:15:20.754Z,25.20
2019-03-10T00:17:48.967Z,21.63
2019-03-10T00:20:17.515Z,21.97
2019-03-10T00:22:45.685Z,23.17
2019-03-10T00:25:14.013Z,37.20
2019-03-10T00:27:42.274Z,25.47
2019-03-10T00:30:13.052Z,26.30
2019-03-10T00:32:41.217Z,26.63
2019-03-10T00:35:09.650Z,19.10
2019-03-10T00:37:37.841Z,33.07
2019-03-10T00:40:31.173Z,25.03
2019-03-10T00:43:05.517Z,20.70
2019-03-10T00:46:08.537Z,21.63
2019-03-10T00:49:05.066Z,29.13
2019-03-10T00:51:42.431Z,25.60
2019-03-10T00:54:10.626Z,25.30
2019-03-10T00:56:38.793Z,16.63
2019-03-10T00:59:06.985Z,24.70
2019-03-10T01:01:35.165Z,24.93
2019-03-10T01:04:03.359Z,25.50
2019-03-10T01:06:31.525Z,24.67
2019-03-10T01:08:59.720Z,20.30
2019-03-10T01:11:28.373Z,20.37
2019-03-10T01:13:56.562Z,19.57
2019-03-10T01:16:25.025Z,24.43
2019-03-10T01:18:55.029Z,20.77
2019-03-10T01:21:23.785Z,20.57
2019-03-10T01:23:52.262Z,19.63
2019-03-10T01:26:20.518Z,20.50
2019-03-10T01:28:48.717Z,20.53
2019-03-10T01:31:41.361Z,23.47
2019-03-10T01:34:18.397Z,17.70
2019-03-10T01:36:46.568Z,19.80
2019-03-10T01:39:14.794Z,22.70
2019-03-10T01:41:42.966Z,25.17
2019-03-10T01:44:11.166Z,26.20
2019-03-10T01:46:39.611Z,24.90
2019-03-10T01:49:07.805Z,20.67
2019-03-10T01:51:35.981Z,19.27
2019-03-10T01:54:04.203Z,30.87
2019-03-10T01:56:32.443Z,24.57
2019-03-10T01:59:00.613Z,24.43
2019-03-10T02:01:28.789Z,19.43
2019-03-10T02:03:56.971Z,26.00
2019-03-10T02:06:25.137Z,19.27
2019-03-10T02:08:53.348Z,28.63
2019-03-10T02:11:21.511Z,24.17
2019-03-10T02:13:49.680Z,21.37
2019-03-10T02:16:17.877Z,25.33
2019-03-10T02:18:46.045Z,21.27
2019-03-10T02:21:14.546Z,20.70
2019-03-10T02:23:42.718Z,18.83
2019-03-10T02:26:10.887Z,22.70
2019-03-10T02:28:39.370Z,17.87
2019-03-10T02:31:07.544Z,13.97
2019-03-10T02:33:35.742Z,27.97
2019-03-10T02:36:04.203Z,25.53
2019-03-10T02:38:32.397Z,27.00
2019-03-10T02:41:00.581Z,17.97
2019-03-10T02:43:28.757Z,18.27
2019-03-10T02:45:56.928Z,21.83
2019-03-10T02:48:25.476Z,17.07
2019-03-10T02:50:53.650Z,18.10
2019-03-10T02:53:21.847Z,18.17
2019-03-10T02:55:50.014Z,24.10
2019-03-10T02:58:18.205Z,18.27
2019-03-10T03:00:46.400Z,14.47
2019-03-10T03:03:14.598Z,17.50
2019-03-10T03:05:42.774Z,27.90
2019-03-10T03:08:10.973Z,19.70
2019-03-10T03:10:39.448Z,16.33
2019-03-10T03:13:07.650Z,21.17
2019-03-10T03:15:35.826Z,17.50
2019-03-10T03:18:04.009Z,16.97
2019-03-10T03:20:32.199Z,20.73
2019-03-10T03:23:00.715Z,18.47
2019-03-10T03:25:28.886Z,17.93
2019-03-10T03:27:57.097Z,17.73
2019-03-10T03:30:25.704Z,14.90
2019-03-10T03:32:53.908Z,11.50
2019-03-10T03:35:52.145Z,26.07
2019-03-10T03:38:26.035Z,14.40
2019-03-10T03:41:14.432Z,22.17
2019-03-10T03:43:42.711Z,16.60
2019-03-10T03:46:10.933Z,20.57
2019-03-10T03:48:39.163Z,18.50
2019-03-10T03:51:07.473Z,20.77
2019-03-10T03:53:35.692Z,15.93
2019-03-10T03:56:03.877Z,16.67
2019-03-10T03:58:32.378Z,16.47
2019-03-10T04:01:04.628Z,21.33
2019-03-10T04:03:32.819Z,16.10
2019-03-10T04:06:01.027Z,15.57
2019-03-10T04:08:29.209Z,20.83
2019-03-10T04:10:57.751Z,20.87
2019-03-10T04:13:26.246Z,19.40
2019-03-10T04:15:54.891Z,19.03
2019-03-10T04:18:23.061Z,28.07
2019-03-10T04:20:51.230Z,16.50
2019-03-10T04:23:19.430Z,23.07
2019-03-10T04:25:47.678Z,17.90
2019-03-10T04:28:15.870Z,11.90
2019-03-10T04:30:44.071Z,21.07
2019-03-10T04:33:12.254Z,21.43
2019-03-10T04:35:40.437Z,17.27
2019-03-10T04:38:08.878Z,23.33
2019-03-10T04:40:37.082Z,22.83
2019-03-10T04:43:05.321Z,20.57
2019-03-10T04:45:33.502Z,26.37
2019-03-10T04:48:01.688Z,19.97
2019-03-10T04:50:29.854Z,24.13
2019-03-10T04:52:58.051Z,23.00
2019-03-10T04:55:44.386Z,32.47
2019-03-10T04:58:14.228Z,25.20
2019-03-10T05:00:44.038Z,16.73
2019-03-10T05:03:12.229Z,26.13
2019-03-10T05:05:40.478Z,26.43
2019-03-10T05:08:08.668Z,22.87
2019-03-10T05:10:36.838Z,22.60
2019-03-10T05:13:05.314Z,25.73
2019-03-10T05:15:33.496Z,32.33
2019-03-10T05:18:01.675Z,22.90
2019-03-10T05:20:29.861Z,25.97
2019-03-10T05:23:29.869Z,21.43
2019-03-10T05:25:58.940Z,21.47
2019-03-10T05:28:28.455Z,20.87
2019-03-10T05:30:56.648Z,19.60
2019-03-10T05:33:24.852Z,17.97
2019-03-10T05:35:53.034Z,16.27
2019-03-10T05:38:21.192Z,19.63
2019-03-10T05:40:49.402Z,18.40
2019-03-10T05:43:17.565Z,21.03
2019-03-10T05:45:45.767Z,21.13
2019-03-10T05:48:13.937Z,22.53
2019-03-10T05:50:42.127Z,16.33
2019-03-10T05:53:10.589Z,17.70
2019-03-10T05:55:38.785Z,17.97
2019-03-10T05:58:06.966Z,26.00
2019-03-10T06:00:42.787Z,17.47
2019-03-10T06:03:05.343Z,17.10
2019-03-10T06:05:33.542Z,21.50
2019-03-10T06:08:01.727Z,18.10
2019-03-10T06:10:29.898Z,22.30
2019-03-10T06:12:58.090Z,16.23
2019-03-10T06:15:26.275Z,25.40
2019-03-10T06:17:54.483Z,21.60
2019-03-10T06:20:22.670Z,22.70
2019-03-10T06:22:50.943Z,17.67
2019-03-10T06:25:19.115Z,25.83
2019-03-10T06:27:47.297Z,21.83
2019-03-10T06:30:15.516Z,22.10
2019-03-10T06:32:43.688Z,18.17
2019-03-10T06:35:11.858Z,22.07
2019-03-10T06:37:40.479Z,27.87
2019-03-10T06:40:08.847Z,22.93
2019-03-10T06:42:37.098Z,18.87
2019-03-10T06:45:06.715Z,26.80
2019-03-10T06:47:34.915Z,26.43
2019-03-10T06:50:04.106Z,28.50
2019-03-10T06:52:32.308Z,26.37
2019-03-10T06:55:00.514Z,28.97
2019-03-10T06:57:28.692Z,24.10
2019-03-10T06:59:56.886Z,34.63
2019-03-10T07:02:25.086Z,23.33
2019-03-10T07:04:53.556Z,28.23
2019-03-10T07:07:21.731Z,18.53
2019-03-10T07:09:49.915Z,35.67
2019-03-10T07:12:18.116Z,29.00
2019-03-10T07:14:46.307Z,25.70
2019-03-10T07:17:14.504Z,30.23
2019-03-10T07:19:42.728Z,18.57
2019-03-10T07:22:11.171Z,26.03
2019-03-10T07:24:39.379Z,30.67
2019-03-10T07:27:07.559Z,37.70
2019-03-10T07:29:37.381Z,38.17
2019-03-10T07:32:08.975Z,41.50
2019-03-10T07:37:39.072Z,32.20
2019-03-10T07:40:09.037Z,22.27
2019-03-10T07:42:41.811Z,35.27
2019-03-10T07:45:11.689Z,25.37
2019-03-10T07:47:41.859Z,31.13
2019-03-10T07:50:14.947Z,26.80
2019-03-10T07:52:44.818Z,28.10
2019-03-10T07:55:26.386Z,26.53
2019-03-10T07:57:56.202Z,25.57
2019-03-10T08:00:35.159Z,31.73
2019-03-10T08:03:05.010Z,29.97
2019-03-10T08:05:51.093Z,31.97
2019-03-10T08:08:37.255Z,29.67
2019-03-10T08:11:23.213Z,27.33
2019-03-10T08:13:58.773Z,20.97
2019-03-10T08:16:28.603Z,19.73
2019-03-10T08:19:01.404Z,19.00
2019-03-10T08:21:47.437Z,17.97
2019-03-10T08:24:19.689Z,12.63
2019-03-10T08:27:01.597Z,28.97
2019-03-10T08:29:43.614Z,15.20
2019-03-10T08:32:19.597Z,20.13
2019-03-10T08:34:52.334Z,17.37
2019-03-10T08:37:22.206Z,13.20
2019-03-10T08:40:09.881Z,15.97
2019-03-10T08:42:42.588Z,17.80
2019-03-10T08:45:24.533Z,4.73
2019-03-10T08:48:00.139Z,3.93
2019-03-10T08:50:39.210Z,2.30
2019-03-10T08:53:20.790Z,1.73
2019-03-10T08:55:59.774Z,1.00
2019-03-10T08:58:29.676Z,3.83
2019-03-10T09:00:59.498Z,2.13
2019-03-10T09:03:41.314Z,1.57
2019-03-10T09:06:11.186Z,0.53
2019-03-10T09:08:40.994Z,3.67
2019-03-10T09:11:26.985Z,0.47
2019-03-10T09:14:11.950Z,1.47
2019-03-10T09:16:47.879Z,1.57
2019-03-10T09:19:20.727Z,3.60
2019-03-10T09:21:56.031Z,2.77
2019-03-10T09:24:25.857Z,0.93
2019-03-10T09:27:01.912Z,1.33
2019-03-10T09:29:37.632Z,1.20
2019-03-10T09:32:07.474Z,1.23
2019-03-10T09:34:44.361Z,1.93
2019-03-10T09:37:14.181Z,1.87
2019-03-10T09:39:44.000Z,1.50
2019-03-10T09:42:29.780Z,3.70
2019-03-10T09:45:05.339Z,2.80
2019-03-10T09:47:50.186Z,2.43
2019-03-10T09:50:24.576Z,2.20
2019-03-10T09:53:00.181Z,4.63
2019-03-10T09:55:45.017Z,2.27
2019-03-10T09:58:23.301Z,2.20
2019-03-10T10:00:58.836Z,2.10
2019-03-10T10:03:31.371Z,3.80
2019-03-10T10:06:17.730Z,2.10
2019-03-10T10:08:53.550Z,2.57
2019-03-10T10:11:32.581Z,2.03
2019-03-10T10:14:08.344Z,2.47
2019-03-10T10:16:40.866Z,5.20
2019-03-10T10:19:19.646Z,3.93
2019-03-10T10:21:49.449Z,4.57
2019-03-10T10:24:25.469Z,6.60
2019-03-10T10:27:04.257Z,6.63
2019-03-10T10:29:43.297Z,6.03
2019-03-10T10:32:15.790Z,4.97
2019-03-10T10:34:45.921Z,6.90
2019-03-10T10:37:35.512Z,5.47
2019-03-10T10:40:16.375Z,7.27
2019-03-10T10:42:51.691Z,5.17
2019-03-10T10:45:21.512Z,7.80
2019-03-10T10:47:57.755Z,4.57
2019-03-10T10:50:43.512Z,6.00
2019-03-10T10:53:21.377Z,4.17
2019-03-10T10:56:05.979Z,3.40
2019-03-10T10:58:51.404Z,6.60
2019-03-10T11:01:37.471Z,6.60
2019-03-10T11:04:08.916Z,8.60
2019-03-10T11:06:50.803Z,7.13
2019-03-10T11:09:26.687Z,6.20
2019-03-10T11:12:05.394Z,8.53
2019-03-10T11:14:47.559Z,7.27
2019-03-10T11:17:33.796Z,7.07
2019-03-10T11:20:10.174Z,5.83
2019-03-10T11:22:53.901Z,5.03
2019-03-10T11:25:23.998Z,13.83
2019-03-10T11:27:54.217Z,7.27
2019-03-10T11:30:40.293Z,6.10
2019-03-10T11:33:10.107Z,10.20
2019-03-10T11:35:42.630Z,8.23
2019-03-10T11:38:15.454Z,14.63
2019-03-10T11:41:01.969Z,11.40
2019-03-10T11:43:37.734Z,8.90
2019-03-10T11:46:30.670Z,8.90
2019-03-10T11:49:18.892Z,6.37
2019-03-10T11:52:05.047Z,6.87
2019-03-10T11:54:49.710Z,10.23
2019-03-10T11:57:28.630Z,8.50
2019-03-10T12:00:10.769Z,11.53
2019-03-10T12:02:46.413Z,13.73
2019-03-10T12:05:24.879Z,10.70
2019-03-10T12:07:57.647Z,13.87
2019-03-10T12:10:25.899Z,11.90
2019-03-10T12:12:54.081Z,11.03
2019-03-10T12:15:22.334Z,16.63
2019-03-10T12:17:50.859Z,12.77
2019-03-10T12:20:19.025Z,14.60
2019-03-10T12:22:47.205Z,14.50
2019-03-10T12:25:15.782Z,16.07
2019-03-10T12:27:43.968Z,14.20
2019-03-10T12:30:14.877Z,18.17
2019-03-10T12:32:43.146Z,20.77
2019-03-10T12:35:11.592Z,14.70
2019-03-10T12:37:39.929Z,13.00
2019-03-10T12:40:10.570Z,14.70
2019-03-10T12:42:38.750Z,17.67
2019-03-10T12:45:09.284Z,9.33
2019-03-10T12:47:37.442Z,7.60
2019-03-10T12:50:11.158Z,12.60
2019-03-10T12:52:39.360Z,6.33
2019-03-10T12:55:09.197Z,8.43
2019-03-10T12:57:37.473Z,8.87
2019-03-10T13:00:13.368Z,10.53
2019-03-10T13:02:41.224Z,8.70
2019-03-10T13:05:10.334Z,9.13
2019-03-10T13:07:38.539Z,10.40
2019-03-10T13:10:07.077Z,4.73
2019-03-10T13:12:36.354Z,11.97
2019-03-10T13:15:06.836Z,11.73
2019-03-10T13:17:35.293Z,16.60
2019-03-10T13:20:05.133Z,8.17
2019-03-10T13:22:33.771Z,10.43
2019-03-10T13:25:01.964Z,10.83
2019-03-10T13:27:30.139Z,11.47
2019-03-10T13:29:58.331Z,9.30
2019-03-10T13:32:26.529Z,11.50
2019-03-10T13:34:54.735Z,8.23
2019-03-10T13:37:22.902Z,8.10
2019-03-10T13:39:51.086Z,12.47
2019-03-10T13:42:19.663Z,7.17
2019-03-10T13:44:47.858Z,9.13
2019-03-10T13:47:16.091Z,7.47
2019-03-10T13:49:45.523Z,10.93
2019-03-10T13:52:13.707Z,6.87
2019-03-10T13:54:41.902Z,7.33
2019-03-10T13:57:10.077Z,12.60
2019-03-10T13:59:38.280Z,8.90
2019-03-10T14:02:06.803Z,7.10
2019-03-10T14:04:35.000Z,5.73
2019-03-10T14:07:03.177Z,7.67
2019-03-10T14:09:31.381Z,10.90
2019-03-10T14:11:59.558Z,7.57
2019-03-10T14:14:28.086Z,4.30
2019-03-10T14:16:56.252Z,7.87
2019-03-10T14:19:24.458Z,4.27
2019-03-10T14:21:52.642Z,2.30
2019-03-10T14:24:21.171Z,1.03
2019-03-10T14:26:49.346Z,1.67
2019-03-10T14:29:17.697Z,5.57
2019-03-10T14:31:45.987Z,2.13
2019-03-10T14:34:14.189Z,3.73
2019-03-10T14:36:42.741Z,3.33
2019-03-10T14:39:11.120Z,1.27
2019-03-10T14:41:39.697Z,2.30
2019-03-10T14:44:07.952Z,4.43
2019-03-10T14:46:36.134Z,1.63
2019-03-10T14:49:04.414Z,4.53
2019-03-10T14:51:32.628Z,4.87
2019-03-10T14:54:00.870Z,3.10
2019-03-10T14:56:30.084Z,3.10
2019-03-10T14:58:58.279Z,4.40
2019-03-10T15:01:26.442Z,8.50
2019-03-10T15:03:55.002Z,1.83
2019-03-10T15:06:23.194Z,2.97
2019-03-10T15:08:51.677Z,2.10
2019-03-10T15:11:21.507Z,5.17
2019-03-10T15:13:49.687Z,7.23
2019-03-10T15:16:18.531Z,2.40
2019-03-10T15:18:46.698Z,2.17
2019-03-10T15:21:15.291Z,3.60
2019-03-10T15:23:43.458Z,5.33
2019-03-10T15:26:11.694Z,2.57
2019-03-10T15:28:39.920Z,12.90
2019-03-10T15:31:08.110Z,3.90
2019-03-10T15:33:36.315Z,3.27
2019-03-10T15:36:04.492Z,1.53
2019-03-10T15:38:33.092Z,2.40
2019-03-10T15:41:01.321Z,1.67
2019-03-10T15:43:29.513Z,1.63
2019-03-10T15:46:01.315Z,4.20
2019-03-10T15:48:29.894Z,6.10
2019-03-10T15:50:58.395Z,3.30
2019-03-10T15:53:26.562Z,3.73
2019-03-10T15:55:55.030Z,3.80
2019-03-10T15:58:23.345Z,3.50
2019-03-10T16:00:51.519Z,4.47
2019-03-10T16:03:19.726Z,1.23
2019-03-10T16:05:47.900Z,2.73
2019-03-10T16:08:16.120Z,6.77
2019-03-10T16:10:45.126Z,1.90
2019-03-10T16:13:13.675Z,2.30
2019-03-10T16:15:41.891Z,1.73
2019-03-10T16:18:10.105Z,1.17
2019-03-10T16:20:38.603Z,1.30
2019-03-10T16:23:06.806Z,2.83
2019-03-10T16:25:35.362Z,2.53
2019-03-10T16:28:03.574Z,2.40
2019-03-10T16:30:31.765Z,0.77
2019-03-10T16:32:59.961Z,1.67
2019-03-10T16:35:28.458Z,1.13
2019-03-10T16:37:56.683Z,1.57
2019-03-10T16:40:24.911Z,3.27
2019-03-10T16:42:53.107Z,1.17
2019-03-10T16:45:28.131Z,0.83
2019-03-10T16:47:57.642Z,2.03
2019-03-10T16:50:28.055Z,0.97
2019-03-10T16:52:56.284Z,1.37
2019-03-10T16:55:24.567Z,1.57
2019-03-10T16:57:52.726Z,3.70
2019-03-10T17:00:23.392Z,2.43
2019-03-10T17:02:52.202Z,3.37
2019-03-10T17:05:22.585Z,4.87
2019-03-10T17:07:50.930Z,1.43
2019-03-10T17:10:23.208Z,1.80
2019-03-10T17:12:51.854Z,1.77
2019-03-10T17:15:24.289Z,4.03
2019-03-10T17:17:52.707Z,5.00
2019-03-10T17:20:21.051Z,3.43
2019-03-10T17:22:49.601Z,1.23
2019-03-10T17:25:18.054Z,2.33
2019-03-10T17:27:46.611Z,1.43
2019-03-10T17:30:22.172Z,4.37
2019-03-10T17:32:50.606Z,3.90
2019-03-10T17:35:19.805Z,2.20
2019-03-10T17:37:49.130Z,1.27
2019-03-10T17:40:19.621Z,2.73
2019-03-10T17:42:48.153Z,2.33
2019-03-10T17:45:23.981Z,3.13
2019-03-10T17:47:52.149Z,3.13
2019-03-10T17:50:20.659Z,2.80
2019-03-10T17:52:49.819Z,3.17
2019-03-10T17:55:20.404Z,2.67
2019-03-10T17:57:48.579Z,4.73
2019-03-10T18:00:22.932Z,2.57
2019-03-10T18:02:51.214Z,3.00
2019-03-10T18:05:19.417Z,1.77
2019-03-10T18:07:47.631Z,1.73
2019-03-10T18:10:17.210Z,1.43
2019-03-10T18:12:45.439Z,1.03
2019-03-10T18:15:17.655Z,4.83
2019-03-10T18:17:45.926Z,1.40
2019-03-10T18:20:22.489Z,1.37
2019-03-10T18:22:51.067Z,1.17
2019-03-10T18:25:19.542Z,2.70
2019-03-10T18:27:47.788Z,4.23
2019-03-10T18:30:28.241Z,2.07
2019-03-10T18:32:56.422Z,1.97
2019-03-10T18:35:24.622Z,3.47
2019-03-10T18:37:52.815Z,3.47
2019-03-10T18:40:25.086Z,2.50
2019-03-10T18:42:53.287Z,1.30
2019-03-10T18:45:21.534Z,4.40
2019-03-10T18:47:49.751Z,2.03
2019-03-10T18:50:23.123Z,2.67
2019-03-10T18:52:51.339Z,2.40
2019-03-10T18:55:20.073Z,2.47
2019-03-10T18:57:48.298Z,2.57
2019-03-10T19:00:24.451Z,5.53
2019-03-10T19:02:52.797Z,3.27
2019-03-10T19:05:21.028Z,4.80
2019-03-10T19:07:49.224Z,1.73
2019-03-10T19:10:17.468Z,3.27
2019-03-10T19:12:45.649Z,3.27
2019-03-10T19:15:24.792Z,7.10
2019-03-10T19:17:53.067Z,2.00
2019-03-10T19:20:21.259Z,4.17
2019-03-10T19:22:49.442Z,3.13
2019-03-10T19:25:19.480Z,5.53
2019-03-10T19:27:47.669Z,3.73
2019-03-10T19:30:22.625Z,4.93
2019-03-10T19:32:51.114Z,2.47
2019-03-10T19:35:19.702Z,4.10
2019-03-10T19:37:47.928Z,5.43
2019-03-10T19:40:20.238Z,4.30
2019-03-10T19:42:48.710Z,3.27
2019-03-10T19:45:18.333Z,7.83
2019-03-10T19:47:46.503Z,4.47
2019-03-10T19:50:20.233Z,1.93
2019-03-10T19:52:48.393Z,2.53
2019-03-10T19:55:16.571Z,3.87
2019-03-10T19:57:44.742Z,2.57
2019-03-10T20:00:16.004Z,4.37
2019-03-10T20:02:44.326Z,5.93
2019-03-10T20:05:12.957Z,2.07
2019-03-10T20:07:41.115Z,2.30
2019-03-10T20:10:17.466Z,3.93
2019-03-10T20:12:45.942Z,2.10
2019-03-10T20:15:24.464Z,2.90
2019-03-10T20:17:52.655Z,3.47
2019-03-10T20:20:23.365Z,4.07
2019-03-10T20:22:51.546Z,4.37
2019-03-10T20:25:19.763Z,3.80
2019-03-10T20:27:47.946Z,5.07
2019-03-10T20:30:19.202Z,3.60
2019-03-10T20:32:47.456Z,6.37
2019-03-10T20:35:15.760Z,4.80
2019-03-10T20:37:43.987Z,1.50
2019-03-10T20:40:16.964Z,3.77
2019-03-10T20:42:45.121Z,4.53
2019-03-10T20:45:14.458Z,1.33
2019-03-10T20:47:42.714Z,2.83
2019-03-10T20:50:16.094Z,1.80
2019-03-10T20:52:44.330Z,3.23
2019-03-10T20:55:13.449Z,1.87
2019-03-10T21:00:42.926Z,3.03
2019-03-10T21:03:13.404Z,0.90
2019-03-10T21:05:41.652Z,3.43
2019-03-10T21:08:09.844Z,3.37
2019-03-10T21:10:38.022Z,1.47
2019-03-10T21:13:06.243Z,2.00
2019-03-10T21:15:34.438Z,6.43
2019-03-10T21:18:02.635Z,3.47
2019-03-10T21:20:30.903Z,3.97
2019-03-10T21:22:59.158Z,5.97
2019-03-10T21:25:31.345Z,6.43
2019-03-10T21:27:59.004Z,6.60
2019-03-10T21:30:33.921Z,6.47
2019-03-10T21:33:03.676Z,5.57
2019-03-10T21:35:33.318Z,4.70
2019-03-10T21:38:01.871Z,4.40
2019-03-10T21:40:32.285Z,5.93
2019-03-10T21:43:00.486Z,5.07
2019-03-10T21:45:29.043Z,5.53
2019-03-10T21:47:57.229Z,5.37
2019-03-10T21:50:25.412Z,2.90
2019-03-10T21:52:53.605Z,3.90
2019-03-10T21:55:21.775Z,3.77
2019-03-10T21:57:49.967Z,4.90
2019-03-10T22:00:21.144Z,7.00
2019-03-10T22:02:49.381Z,6.87
2019-03-10T22:05:18.408Z,13.37
2019-03-10T22:07:46.606Z,6.60
2019-03-10T22:10:26.109Z,6.17
2019-03-10T22:12:46.400Z,6.37
2019-03-10T22:15:16.590Z,7.33
2019-03-10T22:17:44.767Z,7.63
2019-03-10T22:20:17.109Z,7.33
2019-03-10T22:22:49.373Z,6.80
2019-03-10T22:25:15.675Z,18.40
2019-03-10T22:27:45.859Z,7.90
2019-03-10T22:30:18.373Z,9.37
2019-03-10T22:32:46.545Z,11.33
2019-03-10T22:35:14.739Z,6.27
2019-03-10T22:37:42.932Z,9.07
2019-03-10T22:40:13.206Z,13.17
2019-03-10T22:42:41.410Z,15.70
2019-03-10T22:45:15.512Z,13.47
2019-03-10T22:47:44.069Z,20.13
2019-03-10T22:50:13.994Z,10.30
2019-03-10T22:52:42.239Z,13.43
2019-03-10T22:55:15.610Z,15.73
2019-03-10T22:57:43.852Z,16.67
2019-03-10T23:00:43.257Z,9.37
2019-03-10T23:03:11.821Z,14.13
2019-03-10T23:05:41.643Z,12.17
2019-03-10T23:08:10.236Z,10.67
2019-03-10T23:10:38.470Z,8.47
2019-03-10T23:13:06.647Z,9.17
2019-03-10T23:15:34.834Z,20.13
2019-03-10T23:18:03.310Z,18.80
2019-03-10T23:20:31.483Z,7.83
2019-03-10T23:22:59.666Z,15.50
2019-03-10T23:25:27.842Z,12.43
2019-03-10T23:27:56.037Z,15.07
2019-03-10T23:30:24.203Z,9.00
2019-03-10T23:32:52.481Z,10.60
2019-03-10T23:35:20.681Z,8.80
2019-03-10T23:37:49.209Z,8.47
2019-03-10T23:40:18.913Z,6.83
2019-03-10T23:42:47.494Z,7.73
2019-03-10T23:45:19.457Z,10.17
2019-03-10T23:47:47.696Z,7.00
2019-03-10T23:50:17.237Z,7.60
2019-03-10T23:52:45.423Z,10.03
2019-03-10T23:55:14.129Z,11.17
2019-03-10T23:57:42.321Z,12.57
